Date,TemperatureHighF,TemperatureAvgF,TemperatureLowF,DewpointHighF,DewpointAvgF,DewpointLowF,HumidityHigh,HumidityAvg,HumidityLow,PressureMaxIn,PressureMinIn,WindSpeedMaxMPH,WindSpeedAvgMPH,GustSpeedMaxMPH,PrecipitationSumIn
2013-1-2,21,18,16,15,14,13,89,84,77,30.14,30.08,22,8,22,0.00
2013-1-3,27,21,16,24,18,13,92,85,76,30.08,29.79,38,6,38,0.00
2013-1-4,33,29,25,30,21,17,90,72,62,30.05,29.73,57,10,57,0.00
2013-1-5,33,27,24,25,22,18,90,81,66,30.20,29.86,43,8,45,0.00
2013-1-6,29,26,21,26,21,14,93,83,71,30.24,29.82,20,6,20,0.00
2013-1-7,40,30,19,30,24,14,87,78,66,30.25,29.80,46,10,46,0.00
2013-1-8,42,35,29,31,27,24,81,72,59,30.11,29.89,22,6,32,0.00
2013-1-9,38,35,32,31,28,25,89,74,67,30.37,29.77,41,10,41,0.00
2013-1-10,40,35,28,31,28,24,88,74,65,30.52,30.24,31,9,32,0.00
2013-1-11,40,37,36,39,36,32,97,96,85,30.16,29.67,22,5,32,0.22
2013-1-12,49,40,32,46,36,28,98,87,69,29.93,29.61,34,6,34,0.01
2013-1-13,32,30,26,28,26,23,92,85,79,29.95,29.85,21,5,21,0.00
2013-1-14,26,21,15,23,15,9,90,77,56,30.31,29.92,29,5,29,0.00
2013-1-15,29,20,11,19,12,5,86,69,55,30.32,30.00,32,6,32,0.00
2013-1-16,32,24,12,27,18,9,92,80,61,30.00,29.55,49,10,49,0.00
2013-1-17,15,8,-2,10,3,-7,87,80,60,30.25,29.98,39,8,46,0.00
2013-1-18,23,14,6,21,10,1,92,85,69,30.27,29.75,24,7,28,0.00
2013-1-19,30,22,19,28,19,14,96,88,76,29.84,29.38,38,6,38,0.00
2013-1-20,25,11,6,22,7,2,88,82,69,30.08,29.38,66,15,66,0.00
2013-1-21,9,3,-4,4,-1,-8,87,82,65,30.05,29.86,22,4,22,0.00
2013-1-22,-1,-7,-12,-4,-13,-17,84,75,62,30.21,30.01,14,4,17,0.00
2013-1-23,8,-1,-10,3,-5,-15,87,81,75,30.29,30.01,18,4,18,0.00
2013-1-24,8,0,-8,3,-5,-13,88,80,68,30.62,30.30,18,3,18,0.00
2013-1-25,17,10,-2,14,6,-5,89,87,84,30.44,29.99,18,5,18,0.00
2013-1-26,23,13,2,15,9,-1,91,84,72,30.39,30.06,10,1,10,0.00
2013-1-27,28,21,9,25,18,5,93,89,85,30.41,30.11,15,4,15,0.00
2013-1-28,33,30,27,31,29,25,95,94,90,30.11,29.86,14,2,14,0.00
2013-1-29,35,31,25,34,29,24,97,95,91,30.00,29.51,18,1,18,0.04
2013-1-30,34,28,12,34,27,9,97,94,89,29.51,29.19,34,3,34,0.27
2013-1-31,14,10,6,11,7,3,90,86,81,29.84,29.23,0,0,0,0.00
2013-2-1,10,6,1,5,1,-3,86,80,72,30.08,29.84,0,0,0,0.00
2013-2-2,13,8,2,7,4,-1,87,81,73,30.03,29.97,0,0,0,0.00
2013-2-3,18,12,3,14,8,0,90,83,72,29.96,29.73,0,0,0,0.00
2013-2-4,14,4,-11,10,-1,-15,88,80,68,29.99,29.88,0,0,0,0.00
2013-2-5,20,13,6,17,8,1,91,81,70,29.99,29.68,0,0,0,0.00
2013-2-6,11,7,-1,8,2,-5,88,81,73,30.27,29.96,15,4,15,0.00
2013-2-7,17,14,10,14,10,7,89,86,81,30.29,30.20,22,6,22,0.00
2013-2-8,18,13,0,12,7,-5,87,78,66,30.41,30.20,25,4,25,0.00
2013-2-9,21,6,-12,15,2,-16,91,83,75,30.43,30.20,18,4,18,0.00
2013-2-10,32,25,9,29,22,7,95,88,82,30.21,29.57,32,8,32,0.00
2013-2-11,38,33,26,35,31,22,96,92,86,29.72,29.33,28,2,28,0.36
2013-2-12,29,25,15,25,21,13,92,85,77,29.91,29.70,7,0,7,0.00
2013-2-13,33,26,14,27,22,12,94,87,73,29.81,29.65,1,0,7,0.01
2013-2-14,34,30,21,31,27,17,94,91,83,29.83,29.64,36,1,36,0.03
2013-2-15,22,16,10,18,11,7,89,81,74,30.10,29.82,39,4,39,0.00
2013-2-16,13,7,0,9,2,-3,89,79,65,30.15,30.06,22,2,22,0.00
2013-2-17,16,5,-8,7,-1,-12,89,77,60,30.20,30.09,10,1,10,0.00
2013-2-18,32,22,7,30,17,3,94,81,67,30.09,29.49,41,10,41,0.00
2013-2-19,34,24,10,33,22,6,96,92,83,29.83,29.16,56,14,56,0.00
2013-2-20,12,9,4,7,4,0,89,82,79,30.32,29.82,43,18,43,0.00
2013-2-21,19,10,4,12,6,-1,92,82,68,30.47,30.31,32,6,32,0.00
2013-2-22,28,18,6,26,15,3,93,88,82,30.37,29.84,28,10,28,0.00
2013-2-23,35,28,17,30,26,15,95,89,77,29.84,29.76,17,2,25,0.03
2013-2-24,32,24,8,27,21,4,96,88,80,30.13,29.84,25,4,25,0.00
2013-2-25,34,29,23,28,25,21,92,86,75,30.19,30.13,15,3,15,0.00
2013-2-26,34,29,24,28,26,20,93,86,75,30.20,29.91,25,6,25,0.00
2013-2-27,28,25,24,24,22,20,89,87,85,29.91,29.82,11,2,11,0.00
2013-2-28,33,24,16,29,17,11,90,75,65,30.16,29.79,25,10,25,0.00
2013-3-1,16,14,10,11,9,6,85,81,75,30.26,30.16,24,10,24,0.00
2013-3-2,21,14,5,15,8,1,83,78,75,30.24,30.12,11,7,29,0.00
2013-3-3,20,14,7,14,8,2,85,78,72,30.12,30.06,10,5,27,0.00
2013-3-4,25,21,6,18,13,3,86,69,47,30.17,30.10,18,6,25,0.00
2013-3-5,31,21,8,24,14,4,89,75,57,30.20,30.08,22,3,22,0.00
2013-3-6,34,29,25,28,25,22,93,85,73,30.25,30.14,32,5,32,0.01
2013-3-7,31,27,24,26,23,20,92,85,77,30.43,30.25,29,8,29,0.00
2013-3-8,43,30,17,32,25,14,95,82,58,30.49,30.36,21,3,21,0.00
2013-3-9,40,29,17,32,25,15,95,85,59,30.36,29.97,24,6,28,0.00
2013-3-10,38,34,32,36,33,32,96,95,94,29.97,29.81,21,5,28,0.44
2013-3-11,38,35,32,36,34,31,97,96,94,29.93,29.43,18,4,18,0.63
2013-3-12,32,25,19,31,23,17,96,90,80,29.83,29.44,25,5,25,0.00
2013-3-13,26,22,14,17,15,11,92,73,62,30.14,29.82,46,12,46,0.00
2013-3-14,30,22,6,25,14,1,84,69,55,30.23,29.92,25,5,31,0.00
2013-3-15,31,25,19,28,19,9,90,76,64,29.98,29.80,43,13,43,0.00
2013-3-16,20,15,8,17,5,-2,91,67,47,30.05,29.95,32,6,32,0.00
2013-3-17,19,13,5,16,6,0,91,75,57,30.34,30.00,32,3,32,0.00
2013-3-18,31,19,3,25,13,-2,93,78,59,30.25,29.55,42,10,42,0.00
2013-3-19,34,28,23,30,25,20,94,88,77,29.74,29.40,36,7,36,0.01
2013-3-20,31,25,18,26,21,15,91,85,74,29.80,29.70,22,9,32,0.00
2013-3-21,28,25,21,24,20,17,91,81,72,29.90,29.79,34,11,34,0.00
2013-3-22,30,28,20,24,22,16,88,80,75,30.03,29.87,34,10,34,0.00
2013-3-23,36,28,19,27,23,16,94,82,64,30.11,30.02,27,6,27,0.01
2013-3-24,32,28,20,26,22,17,92,80,66,30.10,29.88,29,6,29,0.00
2013-3-25,38,32,26,30,26,20,86,80,71,29.99,29.90,32,8,32,0.00
2013-3-26,38,35,33,30,29,25,87,79,65,30.09,29.99,34,9,35,0.00
2013-3-27,38,34,30,30,28,26,90,81,71,30.17,30.07,36,10,36,0.00
2013-3-28,38,34,29,30,28,25,89,79,62,30.25,30.16,32,6,32,0.00
2013-3-29,40,33,27,32,29,24,91,84,64,30.26,30.18,24,6,24,0.00
2013-3-30,51,33,18,33,25,15,96,77,32,30.18,29.77,31,5,31,0.09
2013-3-31,39,34,24,36,31,19,97,90,74,29.77,29.54,50,5,50,0.17
2013-4-1,25,21,18,20,17,13,91,82,65,30.01,29.65,50,15,50,0.00
2013-4-2,28,23,16,20,17,13,89,77,59,30.20,30.00,39,10,39,0.00
2013-4-3,32,26,20,22,16,11,80,65,53,30.39,30.18,38,8,38,0.00
2013-4-4,42,34,23,34,28,19,93,81,67,30.20,29.88,41,7,41,0.05
2013-4-5,32,28,22,26,20,15,82,71,56,30.23,29.97,39,9,39,0.00
2013-4-6,33,27,17,31,24,14,93,88,69,30.21,29.63,34,8,34,0.00
2013-4-7,37,34,32,33,31,28,96,88,79,30.05,29.43,38,7,38,0.16
2013-4-8,39,34,28,33,30,26,95,86,74,30.05,29.89,25,5,25,0.05
2013-4-9,38,35,32,35,33,31,96,93,86,30.13,30.02,25,4,25,0.01
2013-4-10,40,34,31,31,27,23,95,77,52,30.18,30.09,32,5,32,0.00
2013-4-11,35,32,26,26,20,13,89,61,51,30.20,29.99,39,11,39,0.00
2013-4-12,32,28,25,28,25,23,93,89,79,30.00,29.69,38,9,39,0.00
2013-4-13,35,30,25,30,27,23,95,90,79,29.87,29.69,25,3,25,0.07
2013-4-14,40,35,29,30,28,24,92,76,54,30.08,29.87,29,5,29,0.01
2013-4-15,42,37,34,39,34,28,97,89,76,30.03,29.78,35,8,35,0.31
2013-4-16,45,38,30,34,31,28,94,78,58,30.32,29.84,38,6,38,0.00
2013-4-17,45,37,29,33,30,28,95,78,57,30.45,30.16,25,5,25,0.00
2013-4-18,43,38,36,41,35,29,96,90,70,30.16,29.46,29,6,29,0.29
2013-4-19,40,32,23,40,28,18,97,85,69,29.60,29.17,67,12,67,0.23
2013-4-20,30,24,19,22,17,14,89,75,61,30.45,29.59,43,13,43,0.00
2013-4-21,42,29,12,29,19,9,91,68,33,30.61,30.38,32,8,32,0.00
2013-4-22,52,41,34,35,31,29,81,69,49,30.39,30.16,27,9,27,0.00
2013-4-23,41,37,33,40,33,30,95,87,76,30.16,29.85,35,6,35,0.18
2013-4-24,41,35,28,31,28,22,89,75,53,29.99,29.89,35,10,35,0.00
2013-4-25,40,34,26,34,30,23,95,88,72,30.26,29.91,35,5,35,0.11
2013-4-26,48,35,23,40,32,21,95,88,55,30.33,30.21,25,4,25,0.15
2013-4-27,67,47,31,50,40,29,96,79,54,30.24,30.10,25,4,25,0.01
2013-4-28,68,48,35,44,40,34,96,74,36,30.10,29.87,21,5,21,0.00
2013-4-29,55,48,43,52,46,40,97,93,85,29.91,29.85,17,4,17,0.02
2013-4-30,69,51,42,58,48,41,98,90,68,29.93,29.80,35,8,35,0.00
2013-5-1,59,48,38,52,43,35,96,83,60,30.34,29.92,38,8,38,0.00
2013-5-2,60,45,38,48,39,34,91,80,61,30.33,30.22,34,8,36,0.00
2013-5-3,60,47,38,45,40,35,95,77,51,30.22,30.16,15,3,27,0.09
2013-5-4,68,51,38,50,42,36,94,74,50,30.19,30.14,18,3,18,0.00
2013-5-5,63,47,37,47,40,35,94,77,55,30.19,30.11,27,5,27,0.00
2013-5-6,59,46,37,44,39,35,94,78,55,30.15,30.06,29,6,29,0.00
2013-5-7,51,42,39,42,38,36,93,87,71,30.12,30.08,17,2,17,0.00
2013-5-8,75,66,44,45,38,30,85,39,23,30.08,29.98,21,4,21,0.00
2013-5-9,58,50,42,45,39,34,82,67,45,30.12,29.98,31,7,31,0.00
2013-5-10,47,40,35,37,34,30,91,79,67,30.13,29.96,20,4,21,0.25
2013-5-11,48,37,31,39,33,29,96,88,68,29.96,29.68,32,6,32,0.30
2013-5-12,37,34,32,34,30,27,96,86,77,30.02,29.66,57,17,57,0.16
2013-5-13,47,41,34,32,29,20,84,65,39,30.14,30.01,27,6,27,0.00
2013-5-14,55,46,39,42,38,30,88,73,57,30.04,29.69,34,11,34,0.03
2013-5-15,68,58,42,47,41,38,90,57,35,29.76,29.52,46,12,46,0.00
2013-5-16,52,47,40,40,38,36,88,71,61,30.10,29.75,39,10,39,0.00
2013-5-17,68,52,37,45,40,34,95,66,38,30.24,30.10,21,4,21,0.00
2013-5-18,69,56,42,46,43,38,90,64,40,30.26,30.09,29,7,29,0.00
2013-5-19,70,58,50,55,49,44,91,73,55,30.09,29.90,17,5,17,0.08
2013-5-20,66,59,53,58,54,50,94,83,72,29.97,29.81,36,9,36,0.00
2013-5-21,58,55,50,55,52,48,97,92,87,29.88,29.75,22,7,22,0.45
2013-5-22,56,53,47,55,51,45,97,92,83,29.85,29.75,22,2,22,0.07
2013-5-23,49,43,40,47,37,32,95,79,65,30.29,29.85,43,13,43,0.27
2013-5-24,48,42,35,35,32,30,86,68,56,30.43,30.29,34,9,34,0.00
2013-5-25,61,47,34,41,35,30,93,64,33,30.48,30.34,32,7,32,0.00
2013-5-26,64,50,34,43,35,30,94,60,29,30.42,30.26,25,4,25,0.00
2013-5-27,73,55,34,44,36,30,91,54,24,30.28,30.07,28,5,28,0.00
2013-5-28,57,51,44,51,45,35,96,78,56,30.08,29.80,31,7,31,0.03
2013-5-29,64,55,51,58,53,49,97,92,78,29.97,29.78,22,2,22,0.04
2013-5-30,87,66,50,68,59,50,98,81,51,29.98,29.84,32,5,32,0.00
2013-5-31,79,69,58,68,63,56,97,82,60,29.89,29.78,43,6,43,0.15
2013-6-1,77,63,54,66,59,52,98,89,67,29.79,29.64,28,4,28,0.28
2013-6-2,59,46,41,58,42,36,96,87,76,30.01,29.64,45,10,45,0.14
2013-6-3,51,45,37,42,37,34,92,75,62,30.13,29.99,25,9,34,0.00
2013-6-4,62,49,36,44,38,32,92,66,37,30.24,30.13,20,5,20,0.00
2013-6-5,57,52,48,47,44,35,86,74,54,30.27,30.17,20,4,20,0.00
2013-6-6,69,57,49,47,42,35,90,61,35,30.17,30.03,22,4,22,0.00
2013-6-7,65,53,44,46,42,34,89,66,42,30.04,29.95,22,7,22,0.00
2013-6-8,65,52,40,47,42,38,94,69,44,30.09,29.96,24,5,24,0.00
2013-6-9,78,59,41,52,45,38,96,64,32,30.17,30.07,31,4,31,0.00
2013-6-10,72,64,57,61,54,48,88,70,59,30.08,29.87,24,6,24,0.00
2013-6-11,71,62,54,65,59,53,97,90,75,29.92,29.85,17,3,17,0.23
2013-6-12,73,58,49,58,52,48,97,81,49,29.94,29.81,14,5,20,0.01
2013-6-13,57,53,48,51,49,47,95,86,75,29.82,29.79,21,6,21,0.00
2013-6-14,61,55,48,46,43,38,78,65,53,30.19,30.08,10,6,24,0.00
2013-6-15,73,57,44,55,46,38,88,69,44,30.07,29.88,6,3,18,0.00
2013-6-16,64,58,51,60,54,49,97,90,72,29.86,29.74,10,5,28,0.09
2013-6-17,60,54,48,51,49,44,95,82,69,30.03,29.85,11,6,27,0.00
2013-6-18,66,52,44,48,44,41,87,73,41,30.16,30.06,13,4,28,0.00
2013-6-19,75,59,39,53,45,37,95,63,29,30.22,30.09,20,3,20,0.00
2013-6-20,66,58,46,60,53,44,93,86,73,30.20,30.12,10,2,10,0.16
2013-6-21,63,60,0,60,58,0,97,93,83,30.21,29.96,18,4,24,1.08
2013-6-22,71,60,57,65,59,54,98,95,78,30.08,29.94,22,3,22,0.00
2013-6-23,82,67,58,70,63,57,98,89,62,30.03,29.84,20,4,20,0.02
2013-6-24,79,69,58,67,63,55,97,83,60,29.94,29.85,18,4,18,0.00
2013-6-25,77,67,60,67,61,57,96,83,65,29.87,29.82,25,4,25,0.00
2013-6-26,89,71,55,68,62,54,97,76,41,29.85,29.75,18,3,18,0.13
2013-6-27,80,67,62,69,64,60,97,89,67,29.85,29.70,32,3,32,1.53
2013-6-28,73,65,60,65,62,59,98,91,75,29.72,29.66,22,3,22,0.30
2013-6-29,74,65,60,62,58,54,96,79,60,29.87,29.71,31,6,31,0.01
2013-6-30,71,64,56,56,49,43,79,58,43,30.11,29.87,32,8,32,0.00
2013-7-1,72,63,52,56,50,44,88,64,42,30.24,30.11,20,5,22,0.00
2013-7-2,72,60,46,54,49,43,95,68,39,30.25,30.15,22,4,22,0.00
2013-7-3,82,68,57,59,55,51,84,65,37,30.18,30.07,17,3,17,0.00
2013-7-4,78,69,59,65,61,56,94,77,61,30.10,30.05,20,3,20,0.00
2013-7-5,88,74,60,68,61,56,93,68,37,30.08,30.00,25,4,25,0.00
2013-7-6,88,76,63,67,61,58,86,63,40,30.05,29.98,34,5,34,0.00
2013-7-7,79,70,59,69,64,58,96,83,70,30.02,29.96,14,2,14,0.00
2013-7-8,72,67,64,67,64,60,96,88,82,30.05,29.99,18,5,18,0.00
2013-7-9,83,71,63,71,66,62,98,86,63,30.06,29.77,20,4,20,0.00
2013-7-10,70,65,59,68,62,57,97,89,72,29.89,29.64,39,9,39,0.04
2013-7-11,68,61,54,56,54,51,93,77,59,30.15,29.97,10,6,25,0.00
2013-7-12,83,68,48,60,55,47,96,67,40,30.21,30.13,8,4,21,0.00
2013-7-13,86,69,55,62,60,52,90,74,37,30.24,30.16,7,2,22,0.00
2013-7-14,90,74,57,67,62,55,96,69,41,30.30,30.23,27,3,27,0.00
2013-7-15,87,74,62,71,66,59,96,76,52,30.33,30.27,15,3,15,0.00
2013-7-16,94,78,66,74,68,63,95,75,41,30.32,30.18,27,4,27,0.00
2013-7-17,90,76,70,74,70,67,95,82,56,30.23,30.12,25,5,27,0.00
2013-7-18,86,73,67,75,70,66,97,89,64,30.14,29.74,43,4,43,0.66
2013-7-19,81,70,63,74,66,60,98,86,65,29.85,29.62,35,6,35,1.14
2013-7-20,64,61,55,60,53,48,95,77,59,30.04,29.75,38,10,38,0.00
2013-7-21,75,63,50,57,53,48,96,71,45,30.10,29.99,18,4,25,0.00
2013-7-22,84,72,61,68,62,54,88,72,51,30.00,29.63,28,6,28,0.00
2013-7-23,75,59,55,67,51,48,89,75,65,29.98,29.63,66,12,66,0.00
2013-7-24,69,60,45,56,50,42,94,69,46,30.08,29.97,15,4,20,0.00
2013-7-25,78,65,52,60,56,49,94,73,46,30.10,30.02,21,4,21,0.00
2013-7-26,66,62,57,63,60,56,98,94,82,30.03,29.85,52,4,52,1.87
2013-7-27,61,56,52,57,53,49,98,89,75,29.91,29.80,28,7,28,0.00
2013-7-28,68,54,50,56,51,48,97,89,56,29.94,29.75,27,4,27,0.22
2013-7-29,66,59,52,57,54,51,97,86,62,30.19,29.94,31,7,31,0.06
2013-7-30,79,62,47,64,56,46,96,81,58,30.23,30.14,18,3,18,0.00
2013-7-31,79,64,57,66,60,55,97,85,63,30.14,29.90,31,3,31,0.80
2013-8-1,67,60,53,59,56,52,98,87,73,29.93,29.88,32,6,32,0.01
2013-8-2,69,59,52,61,55,50,97,89,72,29.94,29.83,32,4,32,0.54
2013-8-3,65,59,52,56,54,51,96,83,66,30.10,29.93,28,8,34,0.00
2013-8-4,69,62,52,58,54,50,93,77,59,30.22,30.10,28,7,28,0.00
2013-8-5,76,60,47,59,52,45,95,78,40,30.14,29.94,22,3,22,0.03
2013-8-6,77,67,59,66,62,56,94,83,66,29.94,29.82,18,4,21,0.00
2013-8-7,68,64,58,64,61,52,97,91,80,30.00,29.73,32,5,32,0.47
2013-8-8,72,62,50,58,54,48,95,76,52,30.07,29.99,20,4,21,0.00
2013-8-9,72,61,55,62,55,47,96,81,53,30.07,29.89,46,6,46,0.11
2013-8-10,68,60,51,59,53,48,95,78,64,30.16,30.07,27,4,27,0.00
2013-8-11,71,60,46,62,55,45,97,85,67,30.13,30.04,20,2,20,0.00
2013-8-12,74,61,54,64,58,50,97,87,71,30.05,29.90,39,5,39,0.15
2013-8-13,60,56,53,53,49,46,86,78,67,30.14,29.98,31,13,39,0.00
2013-8-14,56,56,56,53,53,52,91,89,86,30.14,30.13,20,7,27,0.00
2013-8-15,72,61,49,57,52,45,90,74,51,30.12,30.08,11,4,25,0.00
2013-8-16,77,69,50,62,57,49,95,67,43,30.22,30.13,10,2,10,0.00
2013-8-17,85,68,52,64,57,51,97,72,40,30.27,30.18,24,3,24,0.00
2013-8-18,82,70,57,66,59,54,96,70,46,30.21,30.09,21,3,21,0.00
2013-8-19,82,70,57,66,61,56,97,74,52,30.10,29.98,32,5,32,0.00
2013-8-20,86,76,67,71,66,63,90,73,53,30.04,29.97,28,6,28,0.00
2013-8-21,87,75,66,72,68,63,93,80,60,30.02,29.88,31,6,31,0.00
2013-8-22,76,67,61,67,61,56,95,81,58,30.15,29.94,27,7,27,0.00
2013-8-23,74,64,52,61,56,50,97,77,51,30.27,30.15,15,2,20,0.00
2013-8-24,83,66,50,63,57,49,96,75,45,30.32,30.23,18,3,18,0.00
2013-8-25,80,70,59,72,65,57,97,85,70,30.23,29.97,35,4,35,0.32
2013-8-26,80,70,65,71,68,64,98,91,74,30.05,29.91,27,6,41,0.80
2013-8-27,80,70,65,73,68,64,98,91,76,30.00,29.88,11,3,11,0.00
2013-8-28,76,69,64,69,66,63,97,89,77,30.09,29.91,27,6,27,0.01
2013-8-29,84,72,62,72,66,60,98,84,58,30.12,29.96,10,2,17,0.00
2013-8-30,75,70,66,70,67,62,97,90,80,29.97,29.78,25,5,25,0.68
2013-8-31,75,67,61,66,62,58,95,83,68,29.95,29.86,15,3,15,0.00
2013-9-1,70,64,56,66,62,55,97,94,87,29.89,29.71,36,6,36,0.30
2013-9-2,58,55,53,55,52,50,95,88,80,29.93,29.79,49,13,49,0.03
2013-9-3,70,62,55,60,54,51,94,76,54,30.00,29.91,32,9,43,0.00
2013-9-4,64,59,53,60,50,43,91,74,58,30.18,29.90,35,8,35,0.00
2013-9-5,61,56,48,51,44,38,90,67,50,30.36,30.18,32,4,32,0.00
2013-9-6,73,58,45,62,54,43,97,87,64,30.25,29.98,28,2,28,1.00
2013-9-7,72,65,61,67,62,55,97,92,76,30.10,29.89,21,3,21,0.27
2013-9-8,67,59,50,57,52,48,95,78,59,30.23,30.08,15,3,15,0.00
2013-9-9,64,58,50,62,55,48,96,90,81,30.10,29.76,25,4,25,0.09
2013-9-10,83,68,63,74,66,62,98,95,73,29.95,29.76,32,3,32,0.97
2013-9-11,72,66,62,66,63,60,99,92,71,29.98,29.92,18,3,18,0.22
2013-9-12,63,58,51,62,53,44,97,84,72,30.12,29.91,42,11,42,0.01
2013-9-13,54,50,45,46,43,39,91,76,64,30.24,30.12,28,6,28,0.00
2013-9-14,68,54,38,55,48,37,97,80,56,30.16,29.98,24,4,24,0.00
2013-9-15,61,56,46,58,53,39,94,88,79,30.29,29.96,22,4,22,0.13
2013-9-16,54,47,38,41,37,30,93,71,43,30.48,30.29,18,3,18,0.00
2013-9-17,67,50,34,51,43,33,96,79,48,30.44,30.21,21,3,21,0.00
2013-9-18,65,49,42,57,47,41,97,92,73,30.21,30.05,13,2,14,0.01
2013-9-19,75,66,61,67,62,58,92,86,76,29.99,29.85,7,4,24,0.00
2013-9-20,70,64,56,68,62,53,97,93,86,29.81,29.65,32,6,32,0.78
2013-9-21,56,52,47,53,45,39,89,77,66,29.94,29.75,43,13,43,0.00
2013-9-22,55,47,42,43,40,37,89,76,59,30.15,29.93,24,5,29,0.00
2013-9-23,62,48,34,48,42,33,97,81,55,30.25,30.15,15,2,15,0.01
2013-9-24,67,51,39,54,46,38,97,85,57,30.22,30.08,10,2,10,0.00
2013-9-25,68,53,40,54,46,39,97,81,43,30.11,30.05,8,1,8,0.01
2013-9-26,74,55,39,57,47,38,97,78,32,30.19,30.08,7,2,11,0.01
2013-9-27,75,58,44,59,50,43,97,78,43,30.27,30.19,20,4,20,0.00
2013-9-28,72,61,51,60,55,49,95,81,58,30.21,29.87,29,8,29,0.00
2013-9-29,66,57,47,58,51,44,96,81,54,30.05,29.85,31,4,31,0.20
2013-9-30,69,54,43,55,48,42,98,82,44,30.05,29.89,22,4,22,0.01
2013-10-1,74,61,49,62,56,48,96,85,66,29.91,29.71,27,5,42,0.00
2013-10-2,68,60,49,55,47,41,88,62,44,30.10,29.84,29,5,29,0.00
2013-10-3,58,53,43,53,48,40,96,85,65,30.11,30.03,27,5,27,0.08
2013-10-4,62,59,55,53,52,48,90,77,69,30.21,30.03,27,8,27,0.04
2013-10-5,57,51,48,50,46,42,93,83,72,30.20,30.00,31,13,31,0.53
2013-10-6,59,54,48,58,52,46,97,95,90,30.00,29.61,34,7,34,0.41
2013-10-7,55,50,42,54,46,40,97,88,75,30.06,29.57,48,9,48,0.10
2013-10-8,68,52,40,50,44,38,96,77,43,30.22,30.06,22,5,22,0.01
2013-10-9,73,58,45,56,51,44,96,79,53,30.24,30.18,22,3,22,0.00
2013-10-10,72,57,46,57,50,45,97,78,40,30.26,30.17,18,3,18,0.01
2013-10-11,67,57,51,56,52,49,95,84,61,30.23,30.11,20,6,20,0.00
2013-10-12,72,59,48,59,53,47,97,83,53,30.12,29.99,28,6,28,0.10
2013-10-13,61,52,44,59,46,38,95,80,68,30.41,30.00,31,5,31,0.00
2013-10-14,57,47,35,48,41,33,95,80,55,30.48,30.34,15,3,17,0.00
2013-10-15,57,47,35,53,45,33,97,91,72,30.35,29.77,27,5,27,0.25
2013-10-16,57,52,49,54,50,44,97,92,84,29.85,29.65,36,6,36,0.06
2013-10-17,52,47,41,45,40,38,92,78,63,29.89,29.77,22,3,25,0.06
2013-10-18,55,47,39,46,41,36,91,81,65,29.84,29.76,24,4,24,0.01
2013-10-19,50,45,38,43,38,32,93,78,54,29.83,29.70,29,4,29,0.11
2013-10-20,51,41,30,44,38,29,97,89,71,29.84,29.74,28,2,28,0.08
2013-10-21,48,42,33,45,38,25,96,84,65,29.76,29.61,28,6,28,0.09
2013-10-22,43,36,28,37,31,24,94,80,67,29.87,29.64,43,10,43,0.06
2013-10-23,40,35,31,35,32,26,95,88,67,29.87,29.80,45,7,45,0.45
2013-10-24,44,40,36,39,36,34,95,86,73,30.11,29.82,39,9,39,0.36
2013-10-25,46,39,34,38,33,29,95,80,56,30.20,29.72,27,5,27,0.19
2013-10-26,44,41,36,41,37,33,95,87,72,29.94,29.53,43,10,43,0.32
2013-10-27,43,39,33,38,34,32,95,86,69,30.01,29.85,32,4,32,0.17
2013-10-28,41,34,28,37,26,22,87,74,64,30.50,30.01,35,7,35,0.00
2013-10-29,39,33,26,31,26,23,93,77,57,30.51,30.26,17,3,18,0.00
2013-10-30,47,40,33,45,38,31,96,92,85,30.26,29.91,14,3,14,0.02
2013-10-31,51,49,46,51,48,45,98,96,91,29.91,29.07,10,3,13,1.53
2013-11-1,52,45,39,51,43,35,98,91,82,29.72,28.95,46,9,46,0.32
2013-11-2,39,37,34,35,29,22,86,74,60,30.20,29.72,20,5,20,0.00
2013-11-3,42,35,30,31,25,19,86,67,56,30.43,30.20,24,9,24,0.00
2013-11-4,47,41,34,36,34,30,87,74,64,30.44,30.18,32,16,43,0.00
2013-11-5,56,47,41,44,38,34,95,73,48,30.25,30.06,21,4,29,0.20
2013-11-6,49,43,36,48,41,32,97,93,79,30.06,29.66,49,9,49,0.55
2013-11-7,38,35,33,35,32,27,95,89,68,30.05,29.93,38,7,38,0.18
2013-11-8,39,34,30,34,31,28,96,88,72,30.20,30.05,35,4,38,0.13
2013-11-9,41,37,34,40,35,32,96,94,89,30.08,29.61,34,8,34,0.31
2013-11-10,40,37,30,38,32,28,95,84,68,30.17,29.69,50,13,50,0.03
2013-11-11,39,30,25,33,23,16,93,78,62,30.37,29.93,52,15,52,0.03
2013-11-12,28,26,24,23,19,15,88,74,63,30.51,30.37,39,14,49,0.00
2013-11-13,43,34,22,34,25,13,77,68,55,30.39,29.78,49,9,49,0.00
2013-11-14,45,40,36,37,35,31,95,81,68,29.85,29.80,31,5,35,0.11
2013-11-15,52,41,33,42,37,32,97,87,65,29.96,29.82,24,3,24,0.00
2013-11-16,48,40,30,47,38,30,97,92,81,29.97,29.54,28,7,28,0.40
2013-11-17,55,51,43,54,50,42,98,97,94,29.56,29.01,50,6,50,2.80
2013-11-18,43,33,29,42,30,22,96,87,73,30.07,29.11,55,17,63,0.12
2013-11-19,31,27,25,23,22,21,90,81,71,30.38,30.07,42,9,52,0.00
2013-11-20,40,34,26,34,29,23,91,81,65,30.38,30.24,25,11,29,0.00
2013-11-21,40,38,34,37,34,31,96,88,80,30.25,30.17,13,2,18,0.02
2013-11-22,39,30,24,38,27,20,95,88,78,30.34,30.18,43,9,43,0.06
2013-11-23,26,19,15,24,14,8,92,83,60,30.48,30.20,63,18,63,0.00
2013-11-24,22,14,8,18,11,5,92,86,80,30.53,30.10,24,6,28,0.00
2013-11-25,34,30,22,28,25,18,92,84,78,30.10,29.75,32,8,32,0.00
2013-11-26,33,28,19,29,23,15,91,82,71,30.04,29.85,35,9,35,0.00
2013-11-27,25,20,16,21,14,10,89,76,66,30.19,29.98,39,10,39,0.00
2013-11-28,19,15,9,14,10,5,92,81,72,30.46,30.18,18,3,18,0.00
2013-11-29,30,17,4,24,13,0,92,84,69,30.62,30.46,17,4,17,0.00
2013-11-30,32,30,27,31,27,22,96,88,79,30.47,30.06,29,5,29,0.00
2013-12-1,32,30,26,31,26,21,95,84,73,30.18,30.08,14,2,14,0.00
2013-12-2,32,26,16,25,21,14,94,82,69,30.08,29.93,20,3,20,0.01
2013-12-3,24,21,12,21,17,9,91,84,79,30.06,29.99,27,8,27,0.00
2013-12-4,35,28,26,33,25,21,95,89,83,30.01,29.47,36,14,36,0.00
2013-12-5,43,31,14,42,24,6,97,76,56,30.04,29.40,39,9,39,0.59
2013-12-6,24,16,10,14,9,4,80,73,62,30.30,30.04,27,8,28,0.00
2013-12-7,21,14,8,10,6,-2,82,70,58,30.50,30.29,25,8,25,0.00
2013-12-8,20,12,2,18,6,-4,90,77,62,30.50,30.10,17,6,24,0.00
2013-12-9,28,20,6,24,16,-1,92,84,72,30.10,29.69,20,7,32,0.00
2013-12-10,14,7,-2,8,1,-7,84,74,57,29.96,29.78,35,8,35,0.00
2013-12-11,12,8,3,9,4,-3,91,82,73,30.26,29.96,34,8,35,0.00
2013-12-12,17,10,-1,10,5,-8,87,78,62,30.23,29.95,28,10,28,0.00
2013-12-13,14,3,-7,12,-2,-11,91,81,70,30.45,29.95,20,4,27,0.00
2013-12-14,8,2,-9,2,-5,-14,83,74,64,30.46,29.96,27,8,27,0.00
2013-12-15,14,8,3,8,3,-1,85,81,72,30.00,29.73,13,4,21,0.00
2013-12-16,12,4,-5,9,-2,-10,89,78,65,30.16,29.94,22,6,22,0.00
2013-12-17,22,17,12,19,14,9,92,89,83,29.94,29.79,20,4,22,0.00
2013-12-18,23,20,17,20,16,13,91,84,70,29.97,29.76,21,6,28,0.00
2013-12-19,30,23,17,26,19,12,94,85,73,30.10,29.73,39,6,39,0.00
2013-12-20,22,18,14,17,13,10,89,82,72,30.09,29.89,20,4,20,0.00
2013-12-21,24,20,18,17,16,15,91,85,76,29.98,29.86,17,3,17,0.00
2013-12-22,12,9,7,9,5,2,86,83,79,30.09,30.02,17,5,18,0.00
2013-12-23,7,6,6,3,2,1,85,83,81,30.14,30.09,18,7,18,0.00
2013-12-24,8,-2,-12,-3,-8,-15,85,74,56,30.47,30.37,8,4,22,0.00
2013-12-25,21,14,-2,18,10,-6,90,86,81,30.40,29.98,29,6,29,0.00
2013-12-26,26,14,2,16,9,-1,92,80,64,30.15,29.96,15,4,20,0.00
2013-12-27,34,21,13,31,16,7,94,81,69,30.17,29.81,27,6,27,0.00
2013-12-28,34,32,24,32,30,22,96,91,84,29.95,29.80,32,4,32,0.00
2013-12-29,24,11,3,22,8,-1,93,87,80,30.07,29.78,35,9,35,0.00
2013-12-30,12,1,-13,6,-4,-17,88,79,72,30.22,30.02,13,4,22,0.00
2013-12-31,14,6,-1,7,1,-5,90,82,64,30.25,29.94,42,5,42,0.00
2014-1-1,6,-5,-13,4,-10,-17,88,80,68,30.50,30.24,17,4,22,0.00
2014-1-2,3,-8,-18,-3,-13,-23,85,78,69,30.43,30.33,14,2,14,0.00